createdAt,value
2023-01-26T00:01:46.011Z,6.53
2023-01-26T00:03:48.199Z,5.20
2023-01-26T00:05:49.888Z,5.47
2023-01-26T00:07:51.616Z,6.73
2023-01-26T00:09:53.420Z,6.07
2023-01-26T00:11:55.126Z,5.28
2023-01-26T00:14:00.741Z,6.03
2023-01-26T00:16:03.329Z,6.30
2023-01-26T00:18:05.034Z,5.72
2023-01-26T00:20:07.090Z,5.40
2023-01-26T00:22:08.765Z,7.50
2023-01-26T00:24:10.466Z,5.38
2023-01-26T00:26:15.956Z,6.70
2023-01-26T00:28:17.613Z,6.53
2023-01-26T00:30:19.914Z,5.85
2023-01-26T00:32:21.645Z,4.65
2023-01-26T00:34:23.323Z,5.95
2023-01-26T00:36:25.191Z,5.63
2023-01-26T00:38:26.848Z,6.78
2023-01-26T00:40:28.547Z,6.72
2023-01-26T00:42:30.219Z,6.18
2023-01-26T00:44:31.969Z,9.00
2023-01-26T00:46:33.733Z,13.25
2023-01-26T00:48:35.400Z,12.98
2023-01-26T00:50:37.158Z,9.90
2023-01-26T00:52:38.886Z,11.52
2023-01-26T00:54:40.639Z,8.00
2023-01-26T00:56:42.290Z,7.97
2023-01-26T00:58:45.626Z,7.93
2023-01-26T01:00:47.337Z,11.00
2023-01-26T01:02:49.022Z,9.82
2023-01-26T01:04:50.779Z,12.80
2023-01-26T01:06:52.529Z,10.68
2023-01-26T01:08:54.208Z,15.43
2023-01-26T01:11:06.752Z,9.30
2023-01-26T01:13:08.439Z,8.55
2023-01-26T01:15:10.999Z,13.47
2023-01-26T01:17:12.652Z,7.68
2023-01-26T01:19:15.821Z,6.38
2023-01-26T01:21:17.902Z,7.10
2023-01-26T01:23:19.679Z,6.75
2023-01-26T01:25:21.496Z,7.53
2023-01-26T01:27:23.194Z,5.75
2023-01-26T01:29:24.946Z,6.78
2023-01-26T01:31:26.931Z,6.70
2023-01-26T01:33:28.638Z,5.75
2023-01-26T01:35:30.292Z,5.63
2023-01-26T01:37:33.568Z,4.88
2023-01-26T01:39:41.423Z,5.45
2023-01-26T01:41:43.121Z,5.75
2023-01-26T01:43:45.116Z,7.13
2023-01-26T01:45:53.737Z,5.40
2023-01-26T01:47:57.344Z,5.23
2023-01-26T01:49:59.076Z,5.37
2023-01-26T01:52:26.335Z,4.97
2023-01-26T01:54:52.195Z,6.10
2023-01-26T01:56:56.163Z,7.65
2023-01-26T01:59:00.106Z,6.03
2023-01-26T02:01:01.864Z,6.05
2023-01-26T02:03:11.165Z,7.05
2023-01-26T02:05:34.192Z,6.10
2023-01-26T02:07:36.677Z,6.00
2023-01-26T02:09:59.064Z,5.07
2023-01-26T02:12:02.933Z,6.18
2023-01-26T02:14:06.752Z,5.47
2023-01-26T02:16:08.483Z,5.77
2023-01-26T02:18:11.569Z,4.33
2023-01-26T02:20:28.718Z,10.50
2023-01-26T02:23:01.682Z,5.50
2023-01-26T02:25:11.309Z,5.13
2023-01-26T02:27:12.956Z,5.10
2023-01-26T02:29:14.795Z,5.20
2023-01-26T02:31:16.893Z,5.50
2023-01-26T02:33:27.317Z,5.60
2023-01-26T02:35:29.019Z,4.60
2023-01-26T02:37:30.679Z,5.63
2023-01-26T02:39:44.318Z,5.30
2023-01-26T02:42:04.864Z,3.23
2023-01-26T02:44:09.225Z,5.57
2023-01-26T02:46:11.178Z,4.97
2023-01-26T02:48:12.888Z,5.15
2023-01-26T02:50:15.268Z,4.93
2023-01-26T02:52:20.415Z,4.57
2023-01-26T02:54:40.868Z,4.65
2023-01-26T02:56:42.571Z,4.80
2023-01-26T02:58:44.298Z,6.00
2023-01-26T03:00:45.970Z,4.13
2023-01-26T03:02:48.290Z,5.27
2023-01-26T03:04:49.972Z,5.87
2023-01-26T03:06:51.663Z,4.80
2023-01-26T03:08:53.373Z,4.17
2023-01-26T03:10:55.022Z,4.50
2023-01-26T03:12:56.688Z,3.37
2023-01-26T03:15:17.132Z,6.37
2023-01-26T03:17:18.789Z,4.07
2023-01-26T03:19:38.956Z,4.23
2023-01-26T03:21:59.176Z,8.37
2023-01-26T03:24:19.948Z,3.93
2023-01-26T03:26:40.464Z,4.33
2023-01-26T03:28:42.132Z,4.27
2023-01-26T03:30:43.882Z,5.47
2023-01-26T03:32:45.733Z,3.77
2023-01-26T03:34:47.423Z,4.50
2023-01-26T03:36:49.333Z,3.63
2023-01-26T03:38:51.065Z,5.03
2023-01-26T03:41:16.526Z,4.03
2023-01-26T03:43:36.821Z,4.15
2023-01-26T03:45:57.096Z,4.07
2023-01-26T03:48:28.001Z,7.60
2023-01-26T03:50:48.332Z,4.20
2023-01-26T03:53:08.884Z,4.53
2023-01-26T03:55:29.173Z,3.33
2023-01-26T03:57:30.851Z,2.80
2023-01-26T03:59:38.473Z,4.50
2023-01-26T04:01:42.340Z,4.20
2023-01-26T04:04:03.262Z,4.70
2023-01-26T04:06:23.536Z,5.20
2023-01-26T04:08:27.139Z,4.90
2023-01-26T04:10:28.878Z,4.25
2023-01-26T04:12:30.562Z,7.57
2023-01-26T04:14:51.027Z,4.43
2023-01-26T04:17:11.253Z,4.07
2023-01-26T04:19:31.388Z,4.32
2023-01-26T04:21:34.413Z,3.17
2023-01-26T04:23:36.074Z,3.30
2023-01-26T04:25:40.958Z,3.87
2023-01-26T04:27:43.251Z,4.20
2023-01-26T04:29:44.969Z,7.53
2023-01-26T04:31:46.770Z,3.60
2023-01-26T04:33:48.518Z,4.15
2023-01-26T04:35:50.161Z,4.65
2023-01-26T04:37:51.809Z,3.83
2023-01-26T04:39:53.593Z,3.50
2023-01-26T04:41:55.275Z,3.97
2023-01-26T04:43:57.102Z,3.63
2023-01-26T04:46:06.848Z,4.23
2023-01-26T04:48:08.731Z,3.67
2023-01-26T04:50:11.215Z,4.80
2023-01-26T04:52:13.658Z,3.67
2023-01-26T04:54:15.438Z,4.03
2023-01-26T04:56:26.018Z,5.50
2023-01-26T04:58:27.769Z,4.67
2023-01-26T05:00:29.672Z,4.93
2023-01-26T05:02:31.370Z,3.60
2023-01-26T05:04:36.300Z,4.47
2023-01-26T05:06:38.513Z,3.65
2023-01-26T05:08:40.445Z,5.22
2023-01-26T05:10:42.900Z,5.27
2023-01-26T05:12:44.805Z,4.38
2023-01-26T05:14:46.554Z,4.73
2023-01-26T05:16:48.321Z,3.85
2023-01-26T05:18:50.110Z,3.70
2023-01-26T05:20:51.828Z,3.23
2023-01-26T05:22:54.049Z,3.43
2023-01-26T05:24:55.804Z,4.40
2023-01-26T05:27:17.495Z,4.30
2023-01-26T05:29:19.267Z,5.18
2023-01-26T05:31:21.045Z,6.15
2023-01-26T05:33:22.833Z,5.20
2023-01-26T05:35:24.579Z,4.87
2023-01-26T05:37:27.630Z,5.63
2023-01-26T05:39:29.363Z,4.57
2023-01-26T05:41:31.044Z,5.28
2023-01-26T05:43:32.757Z,4.65
2023-01-26T05:45:35.146Z,5.20
2023-01-26T05:47:40.117Z,3.80
2023-01-26T05:49:43.074Z,5.37
2023-01-26T05:51:44.765Z,4.10
2023-01-26T05:53:46.530Z,4.53
2023-01-26T05:55:48.835Z,4.40
2023-01-26T05:57:50.508Z,5.70
2023-01-26T05:59:53.156Z,4.60
2023-01-26T06:01:56.536Z,4.83
2023-01-26T06:03:58.369Z,7.10
2023-01-26T06:06:00.123Z,5.65
2023-01-26T06:08:01.841Z,5.78
2023-01-26T06:10:04.548Z,5.45
2023-01-26T06:12:07.424Z,4.87
2023-01-26T06:14:09.176Z,4.97
2023-01-26T06:16:10.860Z,2.97
2023-01-26T06:18:12.513Z,3.25
2023-01-26T06:20:15.022Z,2.45
2023-01-26T06:22:19.969Z,2.85
2023-01-26T06:24:22.277Z,2.27
2023-01-26T06:26:27.178Z,2.90
2023-01-26T06:28:33.449Z,2.30
2023-01-26T06:30:35.270Z,2.63
2023-01-26T06:32:37.684Z,3.30
2023-01-26T06:34:39.631Z,2.57
2023-01-26T06:36:41.735Z,2.47
2023-01-26T06:38:54.531Z,3.23
2023-01-26T06:41:05.529Z,2.53
2023-01-26T06:43:07.355Z,2.55
2023-01-26T06:45:20.717Z,2.63
2023-01-26T06:47:22.642Z,3.23
2023-01-26T06:49:24.671Z,3.17
2023-01-26T06:51:35.526Z,2.80
2023-01-26T06:53:43.330Z,3.58
2023-01-26T06:55:45.275Z,2.73
2023-01-26T06:57:47.088Z,3.43
2023-01-26T06:59:49.200Z,3.17
2023-01-26T07:01:51.408Z,2.23
2023-01-26T07:03:54.686Z,2.77
2023-01-26T07:05:56.524Z,2.63
2023-01-26T07:08:04.410Z,2.72
2023-01-26T07:10:07.671Z,3.07
2023-01-26T07:12:09.729Z,2.80
2023-01-26T07:14:11.454Z,3.40
2023-01-26T07:16:15.776Z,2.10
2023-01-26T07:18:17.455Z,2.23
2023-01-26T07:20:19.365Z,3.10
2023-01-26T07:22:20.982Z,2.73
2023-01-26T07:24:22.768Z,3.07
2023-01-26T07:26:24.539Z,2.53
2023-01-26T07:28:31.110Z,3.93
2023-01-26T07:30:33.623Z,3.03
2023-01-26T07:32:35.699Z,3.00
2023-01-26T07:34:37.774Z,2.50
2023-01-26T07:36:40.096Z,2.90
2023-01-26T07:38:42.301Z,2.87
2023-01-26T07:40:44.302Z,2.80
2023-01-26T07:42:52.217Z,3.43
2023-01-26T07:44:54.083Z,3.13
2023-01-26T07:46:55.953Z,2.97
2023-01-26T07:48:58.575Z,4.60
2023-01-26T07:51:02.087Z,4.37
2023-01-26T07:53:09.409Z,3.60
2023-01-26T07:55:11.682Z,5.93
2023-01-26T07:57:15.750Z,3.57
2023-01-26T07:59:18.050Z,3.37
2023-01-26T08:01:20.229Z,2.83
2023-01-26T08:03:24.809Z,3.47
2023-01-26T08:05:27.252Z,3.00
2023-01-26T08:07:29.630Z,3.60
2023-01-26T08:09:34.197Z,2.97
2023-01-26T08:11:41.344Z,3.33
2023-01-26T08:13:43.064Z,2.73
2023-01-26T08:15:44.937Z,3.30
2023-01-26T08:17:46.697Z,2.47
2023-01-26T08:19:48.879Z,3.03
2023-01-26T08:21:50.924Z,2.03
2023-01-26T08:23:52.914Z,2.83
2023-01-26T08:26:06.146Z,2.70
2023-01-26T08:28:07.838Z,3.13
2023-01-26T08:30:10.406Z,3.17
2023-01-26T08:32:12.251Z,2.30
2023-01-26T08:34:13.929Z,2.90
2023-01-26T08:36:15.962Z,2.87
2023-01-26T08:38:17.636Z,3.57
2023-01-26T08:40:19.533Z,2.60
2023-01-26T08:42:22.704Z,2.70
2023-01-26T08:44:24.598Z,2.30
2023-01-26T08:46:26.881Z,3.07
2023-01-26T08:48:29.586Z,3.10
2023-01-26T08:50:31.234Z,3.13
2023-01-26T08:52:32.872Z,2.77
2023-01-26T08:54:34.517Z,2.67
2023-01-26T08:56:36.400Z,2.20
2023-01-26T08:58:38.361Z,3.13
2023-01-26T09:00:42.134Z,2.40
2023-01-26T09:02:44.135Z,2.57
2023-01-26T09:04:46.202Z,3.60
2023-01-26T09:06:58.575Z,3.00
2023-01-26T09:09:01.056Z,5.30
2023-01-26T09:11:03.037Z,2.10
2023-01-26T09:13:04.903Z,2.20
2023-01-26T09:15:07.796Z,2.20
2023-01-26T09:17:09.567Z,2.97
2023-01-26T09:19:11.491Z,3.70
2023-01-26T09:21:13.795Z,2.20
2023-01-26T09:23:18.311Z,2.57
2023-01-26T09:25:20.299Z,2.77
2023-01-26T09:27:22.122Z,2.27
2023-01-26T09:29:25.684Z,3.03
2023-01-26T09:31:27.617Z,3.00
2023-01-26T09:33:29.558Z,3.33
2023-01-26T09:35:31.759Z,3.20
2023-01-26T09:37:33.408Z,3.07
2023-01-26T09:39:35.515Z,2.60
2023-01-26T09:42:04.510Z,2.53
2023-01-26T09:44:10.103Z,3.83
2023-01-26T09:46:20.480Z,3.60
2023-01-26T09:48:40.559Z,3.50
2023-01-26T09:50:48.152Z,3.90
2023-01-26T09:52:57.820Z,4.03
2023-01-26T09:55:01.560Z,2.90
2023-01-26T09:57:14.278Z,3.10
2023-01-26T09:59:38.990Z,4.40
2023-01-26T10:02:05.031Z,5.20
2023-01-26T10:04:32.835Z,2.80
2023-01-26T10:06:37.288Z,3.27
2023-01-26T10:08:39.406Z,3.27
2023-01-26T10:10:54.063Z,3.13
2023-01-26T10:12:56.116Z,3.10
2023-01-26T10:15:03.865Z,4.37
2023-01-26T10:17:07.352Z,4.63
2023-01-26T10:19:20.641Z,5.10
2023-01-26T10:21:24.341Z,7.97
2023-01-26T10:23:29.671Z,5.43
2023-01-26T10:25:39.046Z,5.03
2023-01-26T10:27:40.878Z,5.03
2023-01-26T10:29:42.863Z,4.87
2023-01-26T10:31:45.629Z,5.47
2023-01-26T10:33:59.407Z,4.63
2023-01-26T10:36:02.291Z,4.50
2023-01-26T10:38:04.149Z,5.03
2023-01-26T10:40:09.854Z,6.10
2023-01-26T10:42:18.723Z,5.55
2023-01-26T10:44:35.038Z,4.35
2023-01-26T10:46:39.388Z,4.25
2023-01-26T10:48:52.103Z,6.10
2023-01-26T10:50:54.927Z,6.53
2023-01-26T10:52:59.388Z,5.13
2023-01-26T10:55:20.753Z,5.23
2023-01-26T10:57:30.441Z,6.18
2023-01-26T10:59:43.633Z,4.77
2023-01-26T11:02:11.101Z,5.33
2023-01-26T11:04:15.383Z,6.07
2023-01-26T11:06:18.870Z,5.73
2023-01-26T11:08:39.675Z,6.47
2023-01-26T11:10:55.301Z,5.57
2023-01-26T11:13:19.468Z,6.00
2023-01-26T11:15:25.624Z,6.93
2023-01-26T11:17:41.397Z,5.80
2023-01-26T11:20:01.950Z,5.57
2023-01-26T11:22:09.204Z,6.45
2023-01-26T11:24:24.121Z,6.85
2023-01-26T11:26:37.571Z,6.30
2023-01-26T11:29:06.883Z,10.98
2023-01-26T11:31:32.918Z,5.30
2023-01-26T11:33:37.604Z,6.43
2023-01-26T11:35:48.234Z,7.32
2023-01-26T11:38:22.302Z,8.35
2023-01-26T11:40:29.229Z,7.43
2023-01-26T11:43:02.044Z,6.75
2023-01-26T11:45:19.307Z,6.10
2023-01-26T11:47:30.492Z,9.57
2023-01-26T11:49:35.163Z,7.63
2023-01-26T11:51:40.040Z,7.03
2023-01-26T11:54:16.439Z,5.28
2023-01-26T11:56:30.894Z,12.03
2023-01-26T11:58:37.275Z,7.32
2023-01-26T12:00:42.087Z,9.23
2023-01-26T12:02:47.363Z,7.33
2023-01-26T12:04:49.602Z,7.88
2023-01-26T12:07:26.571Z,7.80
2023-01-26T12:09:38.744Z,10.53
2023-01-26T12:11:43.351Z,6.97
2023-01-26T12:13:45.973Z,7.13
2023-01-26T12:15:54.525Z,8.23
2023-01-26T12:18:42.202Z,9.83
2023-01-26T12:20:55.375Z,8.27
2023-01-26T12:23:09.535Z,6.17
2023-01-26T12:25:33.832Z,7.00
2023-01-26T12:27:42.924Z,6.40
2023-01-26T12:30:17.194Z,8.33
2023-01-26T12:32:19.155Z,11.40
2023-01-26T12:34:27.293Z,8.60
2023-01-26T12:37:00.186Z,8.63
2023-01-26T12:39:11.376Z,7.07
2023-01-26T12:41:15.865Z,8.13
2023-01-26T12:43:24.436Z,8.15
2023-01-26T12:45:30.660Z,8.20
2023-01-26T12:47:34.288Z,6.87
2023-01-26T12:49:42.237Z,6.15
2023-01-26T12:52:08.612Z,7.53
2023-01-26T12:54:26.514Z,7.07
2023-01-26T12:56:35.544Z,8.50
2023-01-26T12:58:40.641Z,7.00
2023-01-26T13:01:21.086Z,7.50
2023-01-26T13:03:26.118Z,7.20
2023-01-26T13:05:33.976Z,7.53
2023-01-26T13:07:39.987Z,11.17
2023-01-26T13:10:18.161Z,9.30
2023-01-26T13:12:44.999Z,6.50
2023-01-26T13:14:46.663Z,7.53
2023-01-26T13:16:48.368Z,7.90
2023-01-26T13:18:51.966Z,8.20
2023-01-26T13:20:53.754Z,7.45
2023-01-26T13:23:05.743Z,8.73
2023-01-26T13:25:31.731Z,8.43
2023-01-26T13:27:47.779Z,11.60
2023-01-26T13:29:56.506Z,7.63
2023-01-26T13:32:27.414Z,9.73
2023-01-26T13:34:35.473Z,10.10
2023-01-26T13:36:39.607Z,9.53
2023-01-26T13:38:48.995Z,10.30
2023-01-26T13:40:51.653Z,7.77
2023-01-26T13:43:27.123Z,8.03
2023-01-26T13:45:29.585Z,10.90
2023-01-26T13:47:39.237Z,9.57
2023-01-26T13:49:42.972Z,8.57
2023-01-26T13:51:47.977Z,10.13
2023-01-26T13:54:08.699Z,9.48
2023-01-26T13:56:39.833Z,10.37
2023-01-26T13:58:41.624Z,10.77
2023-01-26T14:00:43.604Z,12.70
2023-01-26T14:02:50.007Z,10.33
2023-01-26T14:04:55.738Z,12.20
2023-01-26T14:07:08.227Z,12.90
2023-01-26T14:09:12.800Z,9.30
2023-01-26T14:11:20.454Z,10.17
2023-01-26T14:13:34.360Z,10.43
2023-01-26T14:15:36.117Z,8.83
2023-01-26T14:17:48.915Z,11.43
2023-01-26T14:19:50.985Z,10.47
2023-01-26T14:21:58.160Z,12.03
2023-01-26T14:23:59.875Z,12.43
2023-01-26T14:26:07.284Z,9.33
2023-01-26T14:28:15.857Z,9.37
2023-01-26T14:30:25.551Z,10.53
2023-01-26T14:32:29.625Z,9.13
2023-01-26T14:34:31.996Z,10.60
2023-01-26T14:36:37.135Z,9.52
2023-01-26T14:38:44.578Z,9.80
2023-01-26T14:40:53.902Z,8.93
2023-01-26T14:42:56.412Z,8.50
2023-01-26T14:44:58.122Z,8.70
2023-01-26T14:46:59.757Z,10.63
2023-01-26T14:49:09.455Z,8.35
2023-01-26T14:51:19.980Z,8.75
2023-01-26T14:53:23.035Z,11.77
2023-01-26T14:55:36.433Z,8.55
2023-01-26T14:57:39.264Z,8.50
2023-01-26T14:59:41.180Z,10.43
2023-01-26T15:01:42.906Z,8.35
2023-01-26T15:03:44.629Z,9.30
2023-01-26T15:05:46.424Z,11.20
2023-01-26T15:07:59.464Z,8.27
2023-01-26T15:10:01.786Z,8.30
2023-01-26T15:12:19.042Z,12.98
2023-01-26T15:14:49.214Z,7.27
2023-01-26T15:16:54.011Z,7.43
2023-01-26T15:19:08.681Z,8.07
2023-01-26T15:21:21.600Z,9.17
2023-01-26T15:23:34.386Z,13.82
2023-01-26T15:25:38.237Z,11.20
2023-01-26T15:27:39.985Z,8.37
2023-01-26T15:29:41.686Z,7.73
2023-01-26T15:31:43.510Z,9.30
2023-01-26T15:33:53.531Z,11.60
2023-01-26T15:35:58.813Z,9.27
2023-01-26T15:38:12.161Z,8.90
2023-01-26T15:40:15.461Z,10.03
2023-01-26T15:42:22.337Z,9.93
2023-01-26T15:44:24.121Z,8.13
2023-01-26T15:46:26.288Z,7.93
2023-01-26T15:48:31.755Z,9.27
2023-01-26T15:50:33.499Z,8.47
2023-01-26T15:52:35.308Z,11.23
2023-01-26T15:54:36.990Z,7.93
2023-01-26T15:56:38.651Z,10.07
2023-01-26T15:58:40.847Z,10.00
2023-01-26T16:00:42.605Z,8.60
2023-01-26T16:02:44.825Z,10.13
2023-01-26T16:04:47.161Z,8.63
2023-01-26T16:06:48.925Z,8.47
2023-01-26T16:08:50.898Z,9.50
2023-01-26T16:10:53.015Z,9.93
2023-01-26T16:12:54.902Z,12.77
2023-01-26T16:14:56.629Z,8.60
2023-01-26T16:16:58.296Z,9.63
2023-01-26T16:19:00.042Z,8.53
2023-01-26T16:21:01.732Z,9.50
2023-01-26T16:23:03.511Z,9.13
2023-01-26T16:25:19.561Z,11.47
2023-01-26T16:27:21.723Z,10.60
2023-01-26T16:29:23.385Z,12.80
2023-01-26T16:31:30.957Z,8.37
2023-01-26T16:33:32.715Z,8.30
2023-01-26T16:35:35.832Z,8.17
2023-01-26T16:37:37.521Z,7.63
2023-01-26T16:39:39.223Z,8.87
2023-01-26T16:41:41.052Z,8.20
2023-01-26T16:43:43.635Z,7.67
2023-01-26T16:45:45.495Z,12.43
2023-01-26T16:47:55.030Z,8.87
2023-01-26T16:49:59.764Z,8.00
2023-01-26T16:52:01.537Z,10.83
2023-01-26T16:54:03.495Z,6.87
2023-01-26T16:56:09.306Z,8.57
2023-01-26T16:58:11.012Z,7.75
2023-01-26T17:00:16.256Z,9.82
2023-01-26T17:02:25.223Z,8.13
2023-01-26T17:04:26.983Z,11.82
2023-01-26T17:06:29.333Z,9.52
2023-01-26T17:08:31.090Z,10.40
2023-01-26T17:10:32.801Z,11.00
2023-01-26T17:12:34.548Z,11.73
2023-01-26T17:14:36.330Z,10.63
2023-01-26T17:16:38.386Z,9.18
2023-01-26T17:18:40.132Z,13.88
2023-01-26T17:20:42.097Z,9.87
2023-01-26T17:22:44.000Z,10.23
2023-01-26T17:24:45.722Z,11.40
2023-01-26T17:26:47.355Z,10.13
2023-01-26T17:28:52.886Z,7.88
2023-01-26T17:30:55.889Z,8.95
2023-01-26T17:32:57.711Z,10.93
2023-01-26T17:34:59.431Z,9.98
2023-01-26T17:37:01.242Z,7.97
2023-01-26T17:39:03.030Z,9.00
2023-01-26T17:41:05.465Z,10.05
2023-01-26T17:43:07.182Z,11.25
2023-01-26T17:45:10.301Z,9.05
2023-01-26T17:47:12.214Z,15.75
2023-01-26T17:49:13.989Z,10.15
2023-01-26T17:51:17.759Z,10.90
2023-01-26T17:53:19.486Z,7.93
2023-01-26T17:55:21.156Z,9.95
2023-01-26T17:57:22.926Z,9.40
2023-01-26T17:59:25.399Z,9.32
2023-01-26T18:01:27.259Z,10.27
2023-01-26T18:03:29.000Z,11.10
2023-01-26T18:05:30.903Z,15.50
2023-01-26T18:07:32.646Z,10.75
2023-01-26T18:09:34.359Z,14.23
2023-01-26T18:11:36.119Z,11.68
2023-01-26T18:13:37.816Z,12.97
2023-01-26T18:15:39.767Z,18.27
2023-01-26T18:17:41.591Z,20.45
2023-01-26T18:19:43.449Z,14.85
2023-01-26T18:21:45.198Z,15.18
2023-01-26T18:23:47.727Z,11.55
2023-01-26T18:25:49.804Z,11.30
2023-01-26T18:27:51.532Z,16.05
2023-01-26T18:29:54.159Z,11.35
2023-01-26T18:31:56.003Z,13.10
2023-01-26T18:34:02.411Z,11.13
2023-01-26T18:36:12.879Z,12.68
2023-01-26T18:38:14.643Z,15.40
2023-01-26T18:40:18.244Z,14.45
2023-01-26T18:42:19.910Z,11.73
2023-01-26T18:44:22.738Z,14.38
2023-01-26T18:46:25.561Z,12.63
2023-01-26T18:48:27.557Z,22.00
2023-01-26T18:50:29.337Z,13.07
2023-01-26T18:52:31.199Z,12.50
2023-01-26T18:54:33.530Z,12.50
2023-01-26T18:56:36.384Z,12.32
2023-01-26T18:58:38.846Z,15.77
2023-01-26T19:00:40.635Z,14.55
2023-01-26T19:02:42.364Z,11.27
2023-01-26T19:04:44.106Z,14.82
2023-01-26T19:06:46.809Z,14.50
2023-01-26T19:08:58.768Z,13.55
2023-01-26T19:11:08.218Z,19.67
2023-01-26T19:13:09.957Z,13.60
2023-01-26T19:15:12.022Z,13.88
2023-01-26T19:17:13.978Z,14.65
2023-01-26T19:19:18.827Z,10.18
2023-01-26T19:21:24.261Z,13.82
2023-01-26T19:23:26.505Z,12.32
2023-01-26T19:25:28.217Z,11.23
2023-01-26T19:27:32.932Z,11.65
2023-01-26T19:29:34.642Z,15.90
2023-01-26T19:31:37.198Z,17.33
2023-01-26T19:33:39.388Z,15.93
2023-01-26T19:35:41.131Z,17.40
2023-01-26T19:37:42.846Z,12.70
2023-01-26T19:39:44.547Z,13.75
2023-01-26T19:41:46.447Z,11.77
2023-01-26T19:43:50.444Z,13.95
2023-01-26T19:45:54.796Z,10.73
2023-01-26T19:47:56.567Z,9.85
2023-01-26T19:49:58.973Z,11.90
2023-01-26T19:52:00.635Z,12.90
2023-01-26T19:54:02.277Z,11.38
2023-01-26T19:56:11.239Z,11.30
2023-01-26T19:58:12.919Z,10.13
2023-01-26T20:00:15.167Z,12.75
2023-01-26T20:02:16.902Z,13.00
2023-01-26T20:04:18.579Z,25.88
2023-01-26T20:06:22.037Z,22.02
2023-01-26T20:08:24.881Z,19.33
2023-01-26T20:10:26.601Z,18.13
2023-01-26T20:12:28.356Z,16.85
2023-01-26T20:14:30.123Z,18.77
2023-01-26T20:16:32.183Z,13.10
2023-01-26T20:18:34.926Z,25.33
2023-01-26T20:20:36.917Z,14.82
2023-01-26T20:22:38.659Z,12.68
2023-01-26T20:24:40.492Z,13.27
2023-01-26T20:26:46.184Z,11.68
2023-01-26T20:28:47.976Z,10.95
2023-01-26T20:30:49.789Z,11.60
2023-01-26T20:32:54.711Z,22.20
2023-01-26T20:34:57.576Z,14.90
2023-01-26T20:37:00.318Z,11.43
2023-01-26T20:39:02.697Z,11.25
2023-01-26T20:41:12.170Z,11.70
2023-01-26T20:43:15.989Z,15.05
2023-01-26T20:45:18.320Z,13.40
2023-01-26T20:47:21.900Z,10.20
2023-01-26T20:49:23.612Z,10.27
2023-01-26T20:51:29.558Z,17.98
2023-01-26T20:53:31.303Z,14.18
2023-01-26T20:55:33.757Z,11.63
2023-01-26T20:57:35.489Z,13.93
2023-01-26T20:59:37.160Z,10.18
2023-01-26T21:01:39.162Z,11.97
2023-01-26T21:03:41.337Z,10.98
2023-01-26T21:05:43.200Z,15.07
2023-01-26T21:07:44.899Z,14.10
2023-01-26T21:09:46.646Z,16.57
2023-01-26T21:11:48.480Z,13.80
2023-01-26T21:13:51.997Z,12.52
2023-01-26T21:15:54.144Z,13.53
2023-01-26T21:17:55.894Z,13.57
2023-01-26T21:19:57.625Z,10.68
2023-01-26T21:21:59.619Z,12.90
2023-01-26T21:24:01.454Z,14.70
2023-01-26T21:26:08.602Z,12.48
2023-01-26T21:28:10.349Z,11.68
2023-01-26T21:30:12.645Z,16.00
2023-01-26T21:32:15.771Z,10.95
2023-01-26T21:34:17.478Z,18.52
2023-01-26T21:36:21.526Z,13.10
2023-01-26T21:38:23.767Z,12.90
2023-01-26T21:40:25.672Z,17.38
2023-01-26T21:42:27.522Z,12.70
2023-01-26T21:44:31.003Z,11.63
2023-01-26T21:46:33.107Z,19.35
2023-01-26T21:48:39.397Z,15.52
2023-01-26T21:50:59.587Z,11.23
2023-01-26T21:53:01.251Z,14.45
2023-01-26T21:55:03.106Z,13.15
2023-01-26T21:57:26.345Z,12.00
2023-01-26T21:59:29.358Z,11.68
2023-01-26T22:01:32.787Z,11.18
2023-01-26T22:03:34.574Z,13.77
2023-01-26T22:05:36.663Z,11.40
2023-01-26T22:07:38.542Z,12.02
2023-01-26T22:09:41.194Z,16.88
2023-01-26T22:11:43.227Z,19.15
2023-01-26T22:13:44.971Z,15.63
2023-01-26T22:15:46.735Z,14.57
2023-01-26T22:17:48.421Z,13.95
2023-01-26T22:19:50.177Z,17.98
2023-01-26T22:21:51.974Z,13.35
2023-01-26T22:23:55.220Z,18.00
2023-01-26T22:25:57.019Z,12.75
2023-01-26T22:27:58.730Z,17.40
2023-01-26T22:30:00.482Z,17.92
2023-01-26T22:32:02.855Z,10.55
2023-01-26T22:34:05.476Z,12.90
2023-01-26T22:36:10.412Z,12.65
2023-01-26T22:38:12.275Z,11.50
2023-01-26T22:40:14.459Z,13.75
2023-01-26T22:42:16.540Z,17.67
2023-01-26T22:44:18.397Z,13.50
2023-01-26T22:46:21.280Z,12.00
2023-01-26T22:48:22.957Z,9.88
2023-01-26T22:50:24.709Z,20.30
2023-01-26T22:52:26.408Z,12.75
2023-01-26T22:54:28.083Z,16.25
2023-01-26T22:56:29.843Z,11.00
2023-01-26T22:58:33.337Z,27.05
2023-01-26T23:00:36.230Z,12.10
2023-01-26T23:02:37.884Z,10.82
2023-01-26T23:04:39.674Z,11.63
2023-01-26T23:06:41.439Z,23.17
2023-01-26T23:08:43.157Z,13.10
2023-01-26T23:10:44.897Z,11.25
2023-01-26T23:12:46.610Z,17.33
2023-01-26T23:14:48.372Z,12.45
2023-01-26T23:16:50.145Z,12.68
2023-01-26T23:18:53.069Z,17.45
2023-01-26T23:20:55.872Z,14.57
2023-01-26T23:22:57.570Z,12.88
2023-01-26T23:25:17.840Z,15.35
2023-01-26T23:27:19.507Z,14.27
2023-01-26T23:29:21.312Z,17.45
2023-01-26T23:31:23.254Z,12.43
2023-01-26T23:33:26.168Z,11.57
2023-01-26T23:35:27.974Z,13.60
2023-01-26T23:37:29.761Z,15.20
2023-01-26T23:39:31.485Z,10.90
2023-01-26T23:41:33.235Z,12.18
2023-01-26T23:43:34.972Z,10.20
2023-01-26T23:45:36.730Z,13.88
2023-01-26T23:47:38.489Z,11.00
2023-01-26T23:49:40.183Z,12.13
2023-01-26T23:51:41.965Z,15.05
2023-01-26T23:53:43.737Z,15.93
2023-01-26T23:55:45.449Z,12.25
2023-01-26T23:57:47.214Z,17.70
2023-01-26T23:59:48.991Z,14.02
